createdAt,value
2023-01-08T00:01:09.683Z,23.20
2023-01-08T00:03:37.728Z,20.88
2023-01-08T00:06:07.014Z,22.15
2023-01-08T00:08:34.673Z,22.77
2023-01-08T00:11:01.967Z,20.70
2023-01-08T00:13:29.660Z,20.63
2023-01-08T00:15:56.609Z,18.67
2023-01-08T00:18:24.946Z,18.90
2023-01-08T00:20:52.011Z,18.95
2023-01-08T00:23:20.227Z,21.75
2023-01-08T00:25:47.628Z,19.75
2023-01-08T00:28:17.621Z,22.33
2023-01-08T00:30:44.820Z,20.33
2023-01-08T00:33:12.308Z,22.17
2023-01-08T00:35:39.727Z,17.38
2023-01-08T00:38:07.234Z,17.48
2023-01-08T00:40:35.525Z,20.95
2023-01-08T00:43:03.310Z,19.52
2023-01-08T00:45:30.941Z,17.42
2023-01-08T00:47:58.180Z,20.00
2023-01-08T00:50:26.237Z,17.55
2023-01-08T00:52:53.277Z,17.52
2023-01-08T00:55:20.353Z,18.42
2023-01-08T00:57:47.286Z,17.98
2023-01-08T01:00:16.554Z,15.55
2023-01-08T01:02:43.790Z,16.33
2023-01-08T01:05:15.444Z,16.05
2023-01-08T01:07:44.480Z,17.73
2023-01-08T01:10:13.732Z,15.48
2023-01-08T01:12:41.586Z,18.25
2023-01-08T01:15:11.438Z,15.20
2023-01-08T01:17:40.499Z,16.58
2023-01-08T01:20:09.646Z,13.35
2023-01-08T01:22:36.844Z,11.52
2023-01-08T01:25:04.029Z,12.98
2023-01-08T01:27:31.249Z,11.68
2023-01-08T01:29:58.324Z,9.82
2023-01-08T01:32:25.602Z,11.18
2023-01-08T01:34:52.748Z,12.90
2023-01-08T01:37:19.839Z,11.10
2023-01-08T01:39:46.971Z,9.25
2023-01-08T01:42:35.845Z,12.23
2023-01-08T01:45:11.894Z,10.80
2023-01-08T01:47:41.184Z,12.38
2023-01-08T01:50:25.867Z,11.45
2023-01-08T01:53:12.182Z,11.80
2023-01-08T01:55:42.853Z,10.15
2023-01-08T01:58:39.806Z,11.20
2023-01-08T02:01:09.340Z,12.05
2023-01-08T02:03:38.830Z,14.00
2023-01-08T02:06:11.825Z,14.18
2023-01-08T02:08:47.707Z,12.45
2023-01-08T02:11:32.977Z,15.73
2023-01-08T02:14:12.251Z,14.30
2023-01-08T02:16:51.378Z,12.23
2023-01-08T02:19:42.899Z,13.38
2023-01-08T02:22:39.198Z,10.93
2023-01-08T02:25:38.136Z,14.55
2023-01-08T02:28:13.784Z,12.55
2023-01-08T02:30:42.253Z,15.13
2023-01-08T02:33:09.565Z,12.27
2023-01-08T02:35:49.052Z,11.88
2023-01-08T02:38:18.475Z,11.93
2023-01-08T02:40:59.027Z,12.05
2023-01-08T02:43:41.027Z,13.30
2023-01-08T02:46:13.269Z,9.93
2023-01-08T02:48:49.035Z,12.55
2023-01-08T02:51:41.258Z,13.35
2023-01-08T02:54:13.516Z,10.32
2023-01-08T02:56:49.380Z,12.30
2023-01-08T02:59:17.759Z,12.30
2023-01-08T03:01:45.894Z,12.07
2023-01-08T03:04:20.139Z,9.88
2023-01-08T03:06:47.499Z,14.98
2023-01-08T03:09:15.972Z,9.90
2023-01-08T03:11:55.041Z,10.38
2023-01-08T03:14:43.805Z,11.43
2023-01-08T03:17:21.187Z,9.35
2023-01-08T03:19:54.558Z,8.15
2023-01-08T03:24:53.520Z,9.18
2023-01-08T03:27:24.809Z,8.93
2023-01-08T03:29:54.653Z,10.80
2023-01-08T03:32:24.111Z,9.88
2023-01-08T03:34:54.670Z,11.75
2023-01-08T03:37:30.040Z,8.02
2023-01-08T03:40:18.003Z,9.27
2023-01-08T03:42:45.106Z,13.07
2023-01-08T03:45:12.325Z,8.88
2023-01-08T03:47:41.408Z,11.02
2023-01-08T03:50:15.517Z,8.45
2023-01-08T03:52:42.759Z,10.85
2023-01-08T03:55:10.027Z,9.68
2023-01-08T03:57:37.065Z,11.25
2023-01-08T04:00:04.878Z,10.85
2023-01-08T04:02:32.100Z,9.70
2023-01-08T04:04:59.379Z,11.35
2023-01-08T04:07:26.352Z,9.23
2023-01-08T04:09:53.531Z,12.82
2023-01-08T04:12:20.536Z,11.88
2023-01-08T04:14:47.911Z,10.02
2023-01-08T04:17:14.946Z,10.32
2023-01-08T04:19:42.259Z,10.13
2023-01-08T04:22:12.548Z,9.48
2023-01-08T04:24:39.953Z,12.38
2023-01-08T04:27:06.976Z,11.00
2023-01-08T04:29:34.128Z,9.20
2023-01-08T04:32:01.171Z,10.38
2023-01-08T04:34:28.311Z,13.13
2023-01-08T04:36:55.274Z,9.48
2023-01-08T04:39:22.386Z,11.07
2023-01-08T04:41:49.406Z,12.70
2023-01-08T04:44:16.569Z,10.57
2023-01-08T04:46:43.572Z,12.20
2023-01-08T04:49:11.701Z,9.82
2023-01-08T04:51:39.123Z,10.35
2023-01-08T04:54:06.558Z,11.95
2023-01-08T04:56:33.541Z,11.90
2023-01-08T04:59:00.714Z,8.60
2023-01-08T05:01:28.237Z,8.65
2023-01-08T05:03:57.734Z,11.60
2023-01-08T05:06:24.890Z,11.88
2023-01-08T05:08:52.219Z,10.68
2023-01-08T05:11:19.234Z,13.75
2023-01-08T05:13:50.743Z,14.27
2023-01-08T05:16:18.310Z,10.88
2023-01-08T05:18:45.746Z,13.20
2023-01-08T05:21:13.985Z,16.42
2023-01-08T05:23:46.497Z,11.80
2023-01-08T05:26:14.453Z,13.45
2023-01-08T05:28:41.629Z,10.98
2023-01-08T05:31:08.908Z,14.05
2023-01-08T05:33:35.962Z,13.55
2023-01-08T05:36:05.815Z,14.10
2023-01-08T05:38:33.026Z,12.93
2023-01-08T05:41:00.145Z,12.65
2023-01-08T05:43:27.316Z,14.45
2023-01-08T05:45:54.405Z,14.45
2023-01-08T05:48:21.529Z,14.00
2023-01-08T05:50:50.580Z,13.80
2023-01-08T05:53:17.741Z,17.27
2023-01-08T05:55:45.007Z,18.02
2023-01-08T05:58:12.302Z,14.98
2023-01-08T06:00:39.594Z,19.48
2023-01-08T06:03:07.010Z,19.63
2023-01-08T06:05:34.135Z,18.27
2023-01-08T06:08:01.580Z,18.02
2023-01-08T06:10:29.128Z,15.88
2023-01-08T06:12:56.143Z,19.05
2023-01-08T06:15:23.370Z,17.42
2023-01-08T06:17:50.446Z,18.33
2023-01-08T06:20:17.590Z,16.75
2023-01-08T06:22:44.588Z,16.33
2023-01-08T06:25:11.754Z,15.88
2023-01-08T06:27:40.559Z,15.75
2023-01-08T06:30:08.350Z,13.07
2023-01-08T06:32:35.415Z,15.20
2023-01-08T06:35:02.629Z,14.35
2023-01-08T06:37:29.757Z,13.38
2023-01-08T06:39:56.934Z,12.57
2023-01-08T06:42:23.988Z,11.73
2023-01-08T06:44:50.918Z,12.68
2023-01-08T06:47:18.012Z,11.30
2023-01-08T06:49:45.094Z,8.45
2023-01-08T06:52:12.338Z,8.77
2023-01-08T06:54:39.450Z,8.93
2023-01-08T06:57:06.368Z,9.00
2023-01-08T06:59:33.349Z,10.57
2023-01-08T07:02:00.566Z,8.93
2023-01-08T07:04:27.704Z,8.30
2023-01-08T07:06:54.882Z,7.05
2023-01-08T07:09:22.021Z,8.88
2023-01-08T07:11:49.239Z,8.68
2023-01-08T07:14:16.285Z,8.80
2023-01-08T07:16:44.585Z,10.48
2023-01-08T07:19:11.750Z,6.90
2023-01-08T07:21:38.885Z,9.63
2023-01-08T07:24:08.191Z,6.43
2023-01-08T07:26:35.592Z,7.78
2023-01-08T07:29:02.541Z,7.57
2023-01-08T07:31:29.730Z,9.27
2023-01-08T07:33:56.857Z,11.48
2023-01-08T07:36:24.603Z,10.93
2023-01-08T07:38:51.894Z,15.73
2023-01-08T07:41:20.462Z,16.30
2023-01-08T07:43:48.639Z,21.52
2023-01-08T07:46:16.407Z,16.50
2023-01-08T07:48:43.508Z,17.83
2023-01-08T07:51:10.995Z,13.40
2023-01-08T07:53:38.236Z,13.77
2023-01-08T07:56:08.190Z,14.40
2023-01-08T07:58:35.943Z,14.05
2023-01-08T08:01:03.254Z,14.38
2023-01-08T08:03:30.421Z,14.18
2023-01-08T08:06:00.317Z,11.63
2023-01-08T08:08:27.731Z,15.20
2023-01-08T08:10:54.693Z,13.98
2023-01-08T08:13:21.893Z,15.30
2023-01-08T08:15:48.941Z,10.38
2023-01-08T08:18:16.151Z,10.35
2023-01-08T08:20:43.211Z,9.82
2023-01-08T08:23:15.059Z,10.63
2023-01-08T08:25:42.909Z,9.32
2023-01-08T08:28:11.647Z,9.85
2023-01-08T08:30:42.387Z,8.75
2023-01-08T08:33:11.202Z,9.00
2023-01-08T08:35:40.658Z,12.05
2023-01-08T08:38:09.247Z,11.38
2023-01-08T08:40:37.846Z,8.98
2023-01-08T08:43:06.074Z,9.50
2023-01-08T08:45:33.378Z,11.68
2023-01-08T08:48:00.390Z,8.45
2023-01-08T08:50:27.506Z,6.28
2023-01-08T08:53:00.613Z,8.27
2023-01-08T08:55:28.733Z,7.05
2023-01-08T08:58:01.936Z,5.18
2023-01-08T09:00:29.809Z,5.88
2023-01-08T09:02:56.980Z,5.35
2023-01-08T09:05:24.235Z,4.10
2023-01-08T09:07:51.349Z,5.55
2023-01-08T09:10:18.442Z,4.85
2023-01-08T09:12:45.463Z,4.13
2023-01-08T09:15:12.682Z,5.35
2023-01-08T09:17:40.834Z,6.25
2023-01-08T09:20:08.340Z,7.72
2023-01-08T09:22:35.550Z,8.20
2023-01-08T09:25:02.591Z,9.82
2023-01-08T09:27:29.683Z,13.85
2023-01-08T09:29:56.764Z,8.90
2023-01-08T09:32:23.842Z,14.05
2023-01-08T09:34:50.986Z,15.07
2023-01-08T09:37:18.064Z,15.57
2023-01-08T09:39:51.040Z,17.08
2023-01-08T09:42:24.777Z,16.50
2023-01-08T09:44:56.041Z,10.57
2023-01-08T09:47:40.232Z,6.95
2023-01-08T09:50:13.777Z,19.00
2023-01-08T09:52:43.552Z,11.73
2023-01-08T09:55:15.445Z,18.73
2023-01-08T09:57:44.528Z,9.63
2023-01-08T10:00:26.179Z,10.23
2023-01-08T10:03:08.612Z,8.65
2023-01-08T10:05:35.937Z,7.70
2023-01-08T10:08:04.755Z,5.57
2023-01-08T10:10:32.656Z,6.78
2023-01-08T10:13:00.009Z,5.00
2023-01-08T10:15:27.095Z,4.07
2023-01-08T10:18:06.179Z,4.75
2023-01-08T10:20:34.266Z,3.50
2023-01-08T10:23:16.702Z,4.57
2023-01-08T10:25:57.641Z,7.18
2023-01-08T10:28:24.871Z,8.60
2023-01-08T10:31:00.672Z,8.40
2023-01-08T10:33:37.750Z,8.45
2023-01-08T10:36:08.640Z,8.15
2023-01-08T10:38:48.521Z,7.18
2023-01-08T10:41:16.414Z,5.07
2023-01-08T10:44:01.295Z,2.17
2023-01-08T10:46:36.817Z,2.85
2023-01-08T10:49:07.264Z,3.30
2023-01-08T10:51:34.592Z,2.92
2023-01-08T10:54:26.952Z,4.07
2023-01-08T10:56:54.195Z,2.20
2023-01-08T10:59:23.259Z,1.65
2023-01-08T11:01:53.151Z,2.30
2023-01-08T11:04:32.686Z,2.28
2023-01-08T11:07:06.353Z,3.90
2023-01-08T11:09:40.187Z,3.70
2023-01-08T11:12:26.719Z,2.35
2023-01-08T11:14:53.989Z,1.65
2023-01-08T11:17:25.931Z,1.60
2023-01-08T11:19:55.789Z,2.95
2023-01-08T11:22:26.870Z,4.28
2023-01-08T11:24:55.094Z,4.60
2023-01-08T11:27:32.419Z,2.88
2023-01-08T11:30:20.647Z,3.85
2023-01-08T11:32:53.436Z,3.28
2023-01-08T11:35:36.241Z,2.65
2023-01-08T11:38:05.650Z,2.63
2023-01-08T11:40:53.292Z,1.55
2023-01-08T11:43:53.477Z,2.03
2023-01-08T11:46:26.979Z,2.70
2023-01-08T11:49:21.649Z,4.47
2023-01-08T11:51:57.515Z,4.07
2023-01-08T11:54:34.941Z,4.05
2023-01-08T11:57:17.136Z,3.03
2023-01-08T12:00:20.253Z,5.00
2023-01-08T12:03:02.878Z,5.25
2023-01-08T12:05:53.403Z,2.38
2023-01-08T12:08:45.060Z,2.83
2023-01-08T12:11:28.845Z,7.10
2023-01-08T12:14:05.159Z,4.82
2023-01-08T12:16:51.999Z,3.35
2023-01-08T12:19:37.145Z,2.58
2023-01-08T12:22:46.859Z,4.88
2023-01-08T12:25:36.440Z,4.63
2023-01-08T12:28:27.604Z,4.32
2023-01-08T12:31:19.652Z,3.28
2023-01-08T12:33:59.001Z,2.75
2023-01-08T12:36:42.969Z,3.58
2023-01-08T12:39:16.008Z,2.55
2023-01-08T12:41:45.620Z,3.55
2023-01-08T12:44:17.627Z,2.78
2023-01-08T12:46:48.715Z,1.98
2023-01-08T12:49:26.312Z,2.65
2023-01-08T12:52:02.194Z,2.72
2023-01-08T12:54:58.403Z,4.03
2023-01-08T12:57:39.169Z,3.90
2023-01-08T13:00:28.001Z,2.17
2023-01-08T13:03:03.222Z,3.22
2023-01-08T13:05:38.191Z,2.63
2023-01-08T13:08:22.152Z,1.63
2023-01-08T13:10:51.970Z,1.98
2023-01-08T13:13:32.465Z,2.42
2023-01-08T13:16:11.549Z,4.00
2023-01-08T13:18:39.322Z,6.22
2023-01-08T13:21:10.724Z,2.65
2023-01-08T13:23:38.590Z,2.08
2023-01-08T13:26:06.877Z,3.72
2023-01-08T13:28:45.300Z,2.42
2023-01-08T13:31:21.406Z,4.47
2023-01-08T13:33:52.626Z,3.00
2023-01-08T13:36:21.573Z,3.05
2023-01-08T13:39:23.312Z,1.85
2023-01-08T13:41:59.214Z,2.72
2023-01-08T13:44:32.229Z,3.30
2023-01-08T13:47:02.406Z,1.98
2023-01-08T13:49:53.289Z,2.22
2023-01-08T13:52:45.501Z,3.45
2023-01-08T13:55:17.372Z,4.05
2023-01-08T13:57:49.188Z,6.47
2023-01-08T14:00:31.395Z,2.88
2023-01-08T14:02:58.520Z,2.22
2023-01-08T14:05:30.902Z,3.25
2023-01-08T14:07:59.216Z,3.50
2023-01-08T14:10:28.786Z,2.72
2023-01-08T14:13:09.622Z,8.60
2023-01-08T14:15:39.121Z,2.60
2023-01-08T14:18:06.613Z,4.50
2023-01-08T14:20:37.280Z,3.38
2023-01-08T14:23:12.423Z,2.63
2023-01-08T14:25:41.777Z,4.38
2023-01-08T14:28:16.845Z,3.60
2023-01-08T14:30:55.932Z,3.88
2023-01-08T14:33:29.440Z,4.35
2023-01-08T14:35:57.447Z,3.00
2023-01-08T14:38:24.647Z,4.07
2023-01-08T14:41:08.001Z,5.20
2023-01-08T14:43:42.133Z,3.92
2023-01-08T14:46:29.940Z,2.92
2023-01-08T14:48:58.378Z,3.80
2023-01-08T14:51:31.260Z,4.45
2023-01-08T14:54:05.606Z,4.18
2023-01-08T14:56:35.062Z,7.07
2023-01-08T14:59:10.133Z,4.68
2023-01-08T15:01:37.904Z,4.40
2023-01-08T15:04:17.417Z,3.33
2023-01-08T15:06:44.903Z,3.33
2023-01-08T15:09:27.976Z,5.05
2023-01-08T15:11:58.234Z,4.00
2023-01-08T15:14:27.886Z,4.20
2023-01-08T15:17:00.622Z,5.75
2023-01-08T15:19:30.948Z,5.93
2023-01-08T15:22:02.249Z,3.45
2023-01-08T15:24:31.030Z,4.25
2023-01-08T15:26:59.552Z,4.50
2023-01-08T15:29:33.463Z,5.78
2023-01-08T15:32:19.072Z,5.25
2023-01-08T15:34:46.584Z,6.63
2023-01-08T15:37:15.299Z,3.90
2023-01-08T15:39:43.286Z,5.53
2023-01-08T15:42:31.717Z,4.80
2023-01-08T15:44:58.774Z,4.70
2023-01-08T15:47:25.721Z,4.05
2023-01-08T15:49:54.652Z,4.43
2023-01-08T15:52:25.465Z,4.90
2023-01-08T15:54:52.699Z,5.25
2023-01-08T15:57:21.279Z,5.75
2023-01-08T15:59:48.409Z,5.43
2023-01-08T16:02:16.559Z,3.70
2023-01-08T16:04:44.351Z,4.90
2023-01-08T16:07:11.378Z,6.32
2023-01-08T16:09:38.455Z,4.85
2023-01-08T16:12:05.855Z,4.43
2023-01-08T16:14:34.650Z,6.15
2023-01-08T16:17:01.744Z,4.30
2023-01-08T16:19:30.575Z,5.20
2023-01-08T16:25:14.206Z,11.57
2023-01-08T16:27:43.185Z,8.65
2023-01-08T16:30:14.840Z,9.98
2023-01-08T16:32:42.255Z,8.57
2023-01-08T16:35:10.844Z,8.05
2023-01-08T16:37:39.357Z,7.97
2023-01-08T16:40:07.166Z,7.72
2023-01-08T16:42:35.530Z,8.07
2023-01-08T16:45:03.030Z,9.65
2023-01-08T16:47:30.357Z,10.68
2023-01-08T16:49:57.439Z,70.50
2023-01-08T16:52:24.643Z,28.42
2023-01-08T16:54:51.741Z,15.82
2023-01-08T16:57:18.958Z,13.98
2023-01-08T16:59:46.177Z,11.50
2023-01-08T17:02:13.544Z,8.18
2023-01-08T17:04:40.614Z,8.40
2023-01-08T17:07:07.958Z,9.15
2023-01-08T17:09:35.083Z,8.30
2023-01-08T17:12:02.258Z,9.23
2023-01-08T17:14:29.622Z,10.52
2023-01-08T17:16:57.129Z,10.60
2023-01-08T17:19:24.360Z,9.45
2023-01-08T17:21:51.789Z,7.43
2023-01-08T17:24:19.055Z,6.82
2023-01-08T17:26:46.372Z,10.00
2023-01-08T17:29:13.557Z,14.43
2023-01-08T17:31:40.852Z,14.77
2023-01-08T17:34:13.524Z,13.90
2023-01-08T17:36:41.223Z,9.93
2023-01-08T17:39:08.630Z,13.48
2023-01-08T17:41:54.843Z,10.25
2023-01-08T17:44:22.106Z,11.30
2023-01-08T17:46:49.405Z,8.07
2023-01-08T17:49:17.248Z,10.38
2023-01-08T17:51:46.001Z,11.75
2023-01-08T17:54:15.585Z,7.57
2023-01-08T17:56:44.102Z,12.88
2023-01-08T17:59:16.051Z,8.38
2023-01-08T18:01:45.632Z,11.75
2023-01-08T18:04:14.670Z,10.23
2023-01-08T18:06:42.938Z,10.35
2023-01-08T18:09:12.192Z,13.50
2023-01-08T18:11:40.477Z,11.40
2023-01-08T18:14:09.871Z,11.20
2023-01-08T18:16:37.103Z,12.48
2023-01-08T18:19:04.333Z,11.70
2023-01-08T18:21:31.469Z,15.35
2023-01-08T18:23:58.936Z,15.40
2023-01-08T18:26:26.147Z,19.95
2023-01-08T18:28:53.425Z,17.50
2023-01-08T18:31:21.969Z,19.15
2023-01-08T18:33:52.744Z,16.27
2023-01-08T18:36:20.481Z,19.15
2023-01-08T18:38:48.606Z,16.42
2023-01-08T18:41:39.400Z,19.65
2023-01-08T18:44:08.029Z,18.88
2023-01-08T18:46:35.812Z,16.42
2023-01-08T18:49:02.989Z,21.15
2023-01-08T18:51:30.315Z,20.92
2023-01-08T18:53:57.652Z,24.48
2023-01-08T18:56:30.022Z,21.92
2023-01-08T18:58:57.547Z,19.55
2023-01-08T19:01:25.120Z,21.17
2023-01-08T19:03:52.221Z,18.85
2023-01-08T19:06:19.277Z,23.00
2023-01-08T19:08:47.139Z,20.90
2023-01-08T19:11:14.497Z,21.70
2023-01-08T19:13:42.393Z,16.98
2023-01-08T19:16:12.853Z,16.17
2023-01-08T19:18:40.549Z,18.80
2023-01-08T19:21:09.953Z,16.80
2023-01-08T19:23:36.960Z,16.60
2023-01-08T19:26:08.140Z,15.70
2023-01-08T19:28:35.826Z,14.20
2023-01-08T19:31:03.627Z,16.30
2023-01-08T19:33:30.913Z,15.25
2023-01-08T19:36:11.089Z,15.18
2023-01-08T19:38:41.287Z,15.57
2023-01-08T19:41:27.571Z,13.55
2023-01-08T19:43:55.844Z,16.60
2023-01-08T19:46:23.429Z,17.10
2023-01-08T19:48:50.600Z,17.95
2023-01-08T19:51:18.121Z,20.25
2023-01-08T19:53:45.528Z,18.67
2023-01-08T19:56:14.276Z,21.02
2023-01-08T19:58:42.176Z,27.67
2023-01-08T20:01:21.252Z,28.25
2023-01-08T20:03:48.873Z,64.13
2023-01-08T20:06:19.963Z,57.28
2023-01-08T20:08:48.697Z,45.83
2023-01-08T20:11:17.284Z,43.05
2023-01-08T20:13:44.609Z,38.78
2023-01-08T20:16:15.395Z,37.35
2023-01-08T20:18:43.284Z,36.10
2023-01-08T20:21:18.550Z,35.08
2023-01-08T20:23:45.793Z,30.05
2023-01-08T20:26:16.271Z,32.92
2023-01-08T20:28:44.801Z,26.45
2023-01-08T20:31:15.767Z,27.40
2023-01-08T20:33:44.026Z,27.67
2023-01-08T20:36:13.354Z,23.63
2023-01-08T20:38:41.539Z,23.73
2023-01-08T20:41:08.715Z,25.38
2023-01-08T20:43:38.137Z,27.17
2023-01-08T20:46:06.448Z,19.73
2023-01-08T20:48:37.081Z,22.77
2023-01-08T20:51:14.885Z,21.60
2023-01-08T20:53:42.192Z,16.27
2023-01-08T20:56:11.825Z,19.00
2023-01-08T20:58:42.452Z,15.90
2023-01-08T21:01:21.870Z,20.65
2023-01-08T21:03:50.932Z,18.45
2023-01-08T21:06:20.589Z,19.50
2023-01-08T21:08:50.255Z,16.52
2023-01-08T21:11:19.001Z,17.50
2023-01-08T21:13:46.878Z,16.42
2023-01-08T21:16:39.705Z,15.80
2023-01-08T21:19:10.573Z,12.77
2023-01-08T21:21:40.557Z,15.00
2023-01-08T21:24:11.525Z,15.68
2023-01-08T21:26:39.377Z,18.48
2023-01-08T21:29:09.319Z,16.65
2023-01-08T21:31:37.992Z,14.65
2023-01-08T21:34:06.302Z,16.70
2023-01-08T21:36:33.615Z,17.40
2023-01-08T21:39:01.717Z,16.80
2023-01-08T21:41:48.745Z,16.58
2023-01-08T21:44:37.785Z,20.35
2023-01-08T21:47:07.515Z,21.52
2023-01-08T21:49:36.208Z,25.85
2023-01-08T21:52:22.883Z,23.55
2023-01-08T21:54:50.357Z,31.05
2023-01-08T21:57:17.486Z,24.88
2023-01-08T21:59:44.955Z,23.85
2023-01-08T22:02:16.597Z,22.75
2023-01-08T22:04:44.848Z,24.80
2023-01-08T22:07:12.803Z,25.88
2023-01-08T22:09:39.899Z,24.27
2023-01-08T22:12:07.905Z,24.52
2023-01-08T22:14:35.454Z,21.73
2023-01-08T22:17:04.339Z,19.83
2023-01-08T22:19:31.520Z,19.40
2023-01-08T22:21:58.506Z,18.25
2023-01-08T22:24:25.683Z,12.43
2023-01-08T22:26:52.846Z,12.38
2023-01-08T22:29:20.934Z,11.43
2023-01-08T22:31:48.178Z,9.25
2023-01-08T22:34:17.530Z,10.55
2023-01-08T22:36:50.371Z,8.65
2023-01-08T22:39:17.611Z,10.35
2023-01-08T22:41:44.814Z,11.95
2023-01-08T22:44:13.642Z,11.13
2023-01-08T22:46:40.977Z,11.07
2023-01-08T22:49:11.582Z,10.88
2023-01-08T22:51:39.373Z,14.40
2023-01-08T22:54:06.466Z,15.10
2023-01-08T22:56:33.557Z,13.50
2023-01-08T22:59:00.598Z,13.57
2023-01-08T23:01:28.227Z,13.60
2023-01-08T23:03:57.892Z,11.52
2023-01-08T23:06:27.705Z,10.48
2023-01-08T23:08:56.107Z,10.75
2023-01-08T23:11:24.998Z,10.40
2023-01-08T23:13:52.978Z,11.32
2023-01-08T23:16:24.503Z,11.73
2023-01-08T23:18:52.749Z,11.85
2023-01-08T23:21:22.009Z,11.25
2023-01-08T23:23:49.411Z,10.10
2023-01-08T23:26:20.043Z,8.90
2023-01-08T23:28:49.132Z,8.35
2023-01-08T23:31:19.721Z,8.40
2023-01-08T23:33:47.505Z,7.30
2023-01-08T23:36:18.525Z,8.02
2023-01-08T23:38:46.502Z,8.70
2023-01-08T23:41:14.365Z,8.32
2023-01-08T23:43:42.036Z,7.38
2023-01-08T23:46:09.950Z,8.00
2023-01-08T23:48:37.106Z,6.93
2023-01-08T23:51:04.237Z,5.97
2023-01-08T23:53:31.249Z,5.88
2023-01-08T23:55:58.316Z,6.57
2023-01-08T23:58:25.681Z,4.97
